createdAt,value
2023-04-12T00:01:04.821Z,62.19
2023-04-12T00:03:34.484Z,62.15
2023-04-12T00:06:03.465Z,62.30
2023-04-12T00:08:33.868Z,62.36
2023-04-12T00:11:02.410Z,62.56
2023-04-12T00:13:29.968Z,62.66
2023-04-12T00:15:56.774Z,62.51
2023-04-12T00:18:25.251Z,62.86
2023-04-12T00:20:52.988Z,63.17
2023-04-12T00:23:20.303Z,63.09
2023-04-12T00:25:47.515Z,62.98
2023-04-12T00:28:16.009Z,63.40
2023-04-12T00:30:43.900Z,63.96
2023-04-12T00:33:10.776Z,64.04
2023-04-12T00:35:37.596Z,63.95
2023-04-12T00:38:06.239Z,63.27
2023-04-12T00:40:33.229Z,63.12
2023-04-12T00:43:00.775Z,62.60
2023-04-12T00:45:28.726Z,62.28
2023-04-12T00:47:56.509Z,62.61
2023-04-12T00:50:24.104Z,62.84
2023-04-12T00:52:52.197Z,62.89
2023-04-12T00:55:19.085Z,62.88
2023-04-12T00:57:46.814Z,62.65
2023-04-12T01:00:14.078Z,62.58
2023-04-12T01:02:42.899Z,62.16
2023-04-12T01:05:14.857Z,61.71
2023-04-12T01:07:54.340Z,61.57
2023-04-12T01:10:49.672Z,61.82
2023-04-12T01:13:39.723Z,61.86
2023-04-12T01:16:36.729Z,62.15
2023-04-12T01:19:17.834Z,62.13
2023-04-12T01:22:38.941Z,62.23
2023-04-12T01:25:32.584Z,62.31
2023-04-12T01:28:04.533Z,62.55
2023-04-12T01:30:32.699Z,62.41
2023-04-12T01:33:05.308Z,62.25
2023-04-12T01:35:35.128Z,62.24
2023-04-12T01:38:04.260Z,62.21
2023-04-12T01:40:31.697Z,62.17
2023-04-12T01:43:09.528Z,62.17
2023-04-12T01:45:37.140Z,62.25
2023-04-12T01:48:09.578Z,62.27
2023-04-12T01:50:58.548Z,62.20
2023-04-12T01:53:49.122Z,61.82
2023-04-12T01:56:18.655Z,61.97
2023-04-12T01:58:50.820Z,62.18
2023-04-12T02:01:19.362Z,62.28
2023-04-12T02:03:49.742Z,62.24
2023-04-12T02:06:22.919Z,62.06
2023-04-12T02:08:50.122Z,62.05
2023-04-12T02:11:16.909Z,62.20
2023-04-12T02:13:44.882Z,62.15
2023-04-12T02:16:14.009Z,62.25
2023-04-12T02:18:42.403Z,62.19
2023-04-12T02:21:13.272Z,62.36
2023-04-12T02:23:39.973Z,62.12
2023-04-12T02:26:06.895Z,62.60
2023-04-12T02:28:34.832Z,62.44
2023-04-12T02:31:02.191Z,62.54
2023-04-12T02:33:31.489Z,62.48
2023-04-12T02:36:02.714Z,62.28
2023-04-12T02:38:29.905Z,61.80
2023-04-12T02:40:59.250Z,61.62
2023-04-12T02:43:26.342Z,61.69
2023-04-12T02:46:00.319Z,61.70
2023-04-12T02:48:27.394Z,61.47
2023-04-12T02:50:54.342Z,61.51
2023-04-12T02:53:23.379Z,61.42
2023-04-12T02:56:10.383Z,61.63
2023-04-12T02:58:37.433Z,61.26
2023-04-12T03:01:07.745Z,60.98
2023-04-12T03:03:51.393Z,61.10
2023-04-12T03:06:35.306Z,61.29
2023-04-12T03:09:02.555Z,61.37
2023-04-12T03:11:29.611Z,61.52
2023-04-12T03:13:57.549Z,61.74
2023-04-12T03:16:29.676Z,62.00
2023-04-12T03:19:07.296Z,62.35
2023-04-12T03:21:34.545Z,62.46
2023-04-12T03:24:02.028Z,62.32
2023-04-12T03:26:30.487Z,62.69
2023-04-12T03:29:11.388Z,63.02
2023-04-12T03:31:40.562Z,62.97
2023-04-12T03:34:08.816Z,62.54
2023-04-12T03:36:39.475Z,62.34
2023-04-12T03:39:14.579Z,61.98
2023-04-12T03:41:41.426Z,61.85
2023-04-12T03:44:08.497Z,61.86
2023-04-12T03:46:36.230Z,61.69
2023-04-12T03:49:07.763Z,61.61
2023-04-12T03:51:35.117Z,61.61
2023-04-12T03:54:04.422Z,61.93
2023-04-12T03:56:40.565Z,62.07
2023-04-12T03:59:14.851Z,62.04
2023-04-12T04:01:44.418Z,62.01
2023-04-12T04:04:11.429Z,62.06
2023-04-12T04:06:38.833Z,62.15
2023-04-12T04:09:06.155Z,62.57
2023-04-12T04:11:36.047Z,62.76
2023-04-12T04:14:06.468Z,62.95
2023-04-12T04:16:33.328Z,62.90
2023-04-12T04:19:02.732Z,63.12
2023-04-12T04:21:32.495Z,64.58
2023-04-12T04:24:01.257Z,68.90
2023-04-12T04:26:34.871Z,65.42
2023-04-12T04:29:14.664Z,64.75
2023-04-12T04:31:41.539Z,63.87
2023-04-12T04:34:10.561Z,63.99
2023-04-12T04:36:43.981Z,63.37
2023-04-12T04:39:12.316Z,63.71
2023-04-12T04:41:44.889Z,63.04
2023-04-12T04:44:32.017Z,63.17
2023-04-12T04:47:00.811Z,63.20
2023-04-12T04:49:27.678Z,64.03
2023-04-12T04:52:02.383Z,63.01
2023-04-12T04:54:29.162Z,63.15
2023-04-12T04:56:57.343Z,63.12
2023-04-12T04:59:24.534Z,63.10
2023-04-12T05:01:54.667Z,64.16
2023-04-12T05:04:21.461Z,63.08
2023-04-12T05:06:48.335Z,63.10
2023-04-12T05:09:18.586Z,63.12
2023-04-12T05:11:51.355Z,63.00
2023-04-12T05:14:18.101Z,63.09
2023-04-12T05:16:44.922Z,63.12
2023-04-12T05:19:11.710Z,63.24
2023-04-12T05:21:38.528Z,63.73
2023-04-12T05:24:05.486Z,63.60
2023-04-12T05:26:34.445Z,63.72
2023-04-12T05:29:03.857Z,63.74
2023-04-12T05:31:30.655Z,63.97
2023-04-12T05:34:00.968Z,63.99
2023-04-12T05:36:33.578Z,64.08
2023-04-12T05:39:04.262Z,64.74
2023-04-12T05:41:34.044Z,64.74
2023-04-12T05:44:01.011Z,64.61
2023-04-12T05:46:27.858Z,64.68
2023-04-12T05:48:56.385Z,64.45
2023-04-12T05:51:33.948Z,64.19
2023-04-12T05:54:08.046Z,64.38
2023-04-12T05:56:36.287Z,64.58
2023-04-12T05:59:05.162Z,64.58
2023-04-12T06:01:33.176Z,64.32
2023-04-12T06:04:06.098Z,64.08
2023-04-12T06:06:33.213Z,63.80
2023-04-12T06:09:01.166Z,63.71
2023-04-12T06:11:28.873Z,63.71
2023-04-12T06:13:55.708Z,63.48
2023-04-12T06:16:23.323Z,63.37
2023-04-12T06:18:50.198Z,63.14
2023-04-12T06:21:18.819Z,63.58
2023-04-12T06:23:45.606Z,63.62
2023-04-12T06:26:12.570Z,63.39
2023-04-12T06:28:39.616Z,62.85
2023-04-12T06:31:07.007Z,62.64
2023-04-12T06:33:37.699Z,62.41
2023-04-12T06:36:08.764Z,62.19
2023-04-12T06:38:35.796Z,62.06
2023-04-12T06:41:02.720Z,62.27
2023-04-12T06:43:29.527Z,62.45
2023-04-12T06:45:57.065Z,62.71
2023-04-12T06:48:23.998Z,62.68
2023-04-12T06:50:50.902Z,62.96
2023-04-12T06:53:17.609Z,63.09
2023-04-12T06:55:44.368Z,62.88
2023-04-12T06:58:11.138Z,62.83
2023-04-12T07:00:40.077Z,62.60
2023-04-12T07:03:06.966Z,62.52
2023-04-12T07:05:33.731Z,62.08
2023-04-12T07:08:00.633Z,62.14
2023-04-12T07:10:27.465Z,61.80
2023-04-12T07:12:54.248Z,61.16
2023-04-12T07:15:21.084Z,60.86
2023-04-12T07:17:47.920Z,60.55
2023-04-12T07:20:14.864Z,60.40
2023-04-12T07:22:41.630Z,59.86
2023-04-12T07:25:10.804Z,59.53
2023-04-12T07:27:37.592Z,59.08
2023-04-12T07:30:04.800Z,58.51
2023-04-12T07:32:31.661Z,58.51
2023-04-12T07:34:58.493Z,58.16
2023-04-12T07:37:25.455Z,57.58
2023-04-12T07:39:52.951Z,57.02
2023-04-12T07:42:19.864Z,56.43
2023-04-12T07:44:46.606Z,55.86
2023-04-12T07:47:13.371Z,55.68
2023-04-12T07:49:40.205Z,55.73
2023-04-12T07:52:07.368Z,55.25
2023-04-12T07:54:34.329Z,55.00
2023-04-12T07:57:05.463Z,54.00
2023-04-12T07:59:32.314Z,53.80
2023-04-12T08:01:59.276Z,53.75
2023-04-12T08:04:28.379Z,53.38
2023-04-12T08:06:55.701Z,53.43
2023-04-12T08:09:23.556Z,53.18
2023-04-12T08:11:50.593Z,52.94
2023-04-12T08:14:17.377Z,52.76
2023-04-12T08:16:44.224Z,52.90
2023-04-12T08:19:11.667Z,53.14
2023-04-12T08:21:38.465Z,53.24
2023-04-12T08:24:05.486Z,53.27
2023-04-12T08:26:32.374Z,52.98
2023-04-12T08:28:59.140Z,53.11
2023-04-12T08:31:26.184Z,53.19
2023-04-12T08:33:52.968Z,52.54
2023-04-12T08:36:19.789Z,52.19
2023-04-12T08:38:52.714Z,51.63
2023-04-12T08:41:20.233Z,51.17
2023-04-12T08:43:47.712Z,50.82
2023-04-12T08:46:16.106Z,55.07
2023-04-12T08:48:50.978Z,52.73
2023-04-12T08:51:19.665Z,55.07
2023-04-12T08:53:46.682Z,53.56
2023-04-12T08:56:15.010Z,52.05
2023-04-12T08:58:45.594Z,51.15
2023-04-12T09:01:14.915Z,50.84
2023-04-12T09:03:45.953Z,51.08
2023-04-12T09:06:13.520Z,50.43
2023-04-12T09:09:00.239Z,50.10
2023-04-12T09:11:28.729Z,51.26
2023-04-12T09:13:56.722Z,50.10
2023-04-12T09:16:41.286Z,50.13
2023-04-12T09:19:09.311Z,51.12
2023-04-12T09:21:37.246Z,51.75
2023-04-12T09:24:12.290Z,51.70
2023-04-12T09:26:40.844Z,51.51
2023-04-12T09:29:24.291Z,50.19
2023-04-12T09:32:00.315Z,51.65
2023-04-12T09:34:28.001Z,49.91
2023-04-12T09:36:55.199Z,52.13
2023-04-12T09:39:32.150Z,53.02
2023-04-12T09:42:21.353Z,53.11
2023-04-12T09:44:57.671Z,52.66
2023-04-12T09:47:38.015Z,52.31
2023-04-12T09:50:07.355Z,50.54
2023-04-12T09:52:40.420Z,51.15
2023-04-12T09:55:09.934Z,52.00
2023-04-12T09:57:44.053Z,51.84
2023-04-12T10:00:14.105Z,52.05
2023-04-12T10:02:45.038Z,51.84
2023-04-12T10:05:16.168Z,52.12
2023-04-12T10:07:43.981Z,51.29
2023-04-12T10:10:16.011Z,51.09
2023-04-12T10:12:45.621Z,50.92
2023-04-12T10:15:13.788Z,51.30
2023-04-12T10:17:52.493Z,51.10
2023-04-12T10:20:21.707Z,51.09
2023-04-12T10:22:53.316Z,50.65
2023-04-12T10:25:25.619Z,51.03
2023-04-12T10:27:53.664Z,51.75
2023-04-12T10:30:22.932Z,51.75
2023-04-12T10:33:10.598Z,52.00
2023-04-12T10:36:03.924Z,52.18
2023-04-12T10:38:37.429Z,52.39
2023-04-12T10:41:23.060Z,52.36
2023-04-12T10:43:51.630Z,52.58
2023-04-12T10:46:46.382Z,53.23
2023-04-12T10:49:17.333Z,53.05
2023-04-12T10:52:01.119Z,53.76
2023-04-12T10:54:31.618Z,53.72
2023-04-12T10:56:58.528Z,53.92
2023-04-12T10:59:51.196Z,53.99
2023-04-12T11:02:18.227Z,54.00
2023-04-12T11:05:11.333Z,53.32
2023-04-12T11:08:00.428Z,53.29
2023-04-12T11:10:39.274Z,53.65
2023-04-12T11:13:08.904Z,54.02
2023-04-12T11:15:40.090Z,54.11
2023-04-12T11:18:11.911Z,54.11
2023-04-12T11:20:40.883Z,54.06
2023-04-12T11:23:09.971Z,53.83
2023-04-12T11:25:38.583Z,53.64
2023-04-12T11:28:17.238Z,53.45
2023-04-12T11:30:56.361Z,53.76
2023-04-12T11:33:36.204Z,53.73
2023-04-12T11:36:08.974Z,53.38
2023-04-12T11:38:38.099Z,53.40
2023-04-12T11:41:07.126Z,53.19
2023-04-12T11:43:35.795Z,53.67
2023-04-12T11:46:03.122Z,53.40
2023-04-12T11:48:30.586Z,53.34
2023-04-12T11:51:08.305Z,53.17
2023-04-12T11:53:38.105Z,51.44
2023-04-12T11:56:05.107Z,51.32
2023-04-12T11:58:32.873Z,51.40
2023-04-12T12:01:00.289Z,51.05
2023-04-12T12:03:27.825Z,50.39
2023-04-12T12:05:55.383Z,50.04
2023-04-12T12:08:24.409Z,50.34
2023-04-12T12:11:06.415Z,50.13
2023-04-12T12:14:07.134Z,50.14
2023-04-12T12:16:35.909Z,50.37
2023-04-12T12:19:05.683Z,50.79
2023-04-12T12:21:32.624Z,51.05
2023-04-12T12:24:00.186Z,50.71
2023-04-12T12:26:28.298Z,50.84
2023-04-12T12:28:56.928Z,50.48
2023-04-12T12:31:26.665Z,51.10
2023-04-12T12:33:58.857Z,50.21
2023-04-12T12:36:33.527Z,50.03
2023-04-12T12:39:07.386Z,50.15
2023-04-12T12:41:34.478Z,49.57
2023-04-12T12:44:01.175Z,50.19
2023-04-12T12:46:37.379Z,49.87
2023-04-12T12:49:14.662Z,49.62
2023-04-12T12:51:43.268Z,49.37
2023-04-12T12:54:10.360Z,50.52
2023-04-12T12:56:37.109Z,51.38
2023-04-12T12:59:03.950Z,50.96
2023-04-12T13:01:30.687Z,51.09
2023-04-12T13:03:58.996Z,50.75
2023-04-12T13:06:27.189Z,49.48
2023-04-12T13:08:55.361Z,49.01
2023-04-12T13:11:22.248Z,49.86
2023-04-12T13:13:49.112Z,49.57
2023-04-12T13:16:16.123Z,49.01
2023-04-12T13:18:43.265Z,49.26
2023-04-12T13:21:10.023Z,49.42
2023-04-12T13:23:36.746Z,48.66
2023-04-12T13:26:03.702Z,36.87
2023-04-12T13:28:30.462Z,32.40
2023-04-12T13:30:57.396Z,29.30
2023-04-12T13:33:24.220Z,28.25
2023-04-12T13:35:51.182Z,26.51
2023-04-12T13:38:18.804Z,27.31
2023-04-12T13:40:45.571Z,27.22
2023-04-12T13:43:12.326Z,27.23
2023-04-12T13:45:39.168Z,26.71
2023-04-12T13:48:06.136Z,25.28
2023-04-12T13:50:32.859Z,23.75
2023-04-12T13:52:59.622Z,23.63
2023-04-12T13:55:26.586Z,23.66
2023-04-12T13:57:53.422Z,23.96
2023-04-12T14:00:20.928Z,23.23
2023-04-12T14:02:47.870Z,23.97
2023-04-12T14:05:15.253Z,22.41
2023-04-12T14:07:41.993Z,21.58
2023-04-12T14:10:09.507Z,22.31
2023-04-12T14:12:36.611Z,21.99
2023-04-12T14:15:04.501Z,21.80
2023-04-12T14:17:32.811Z,21.97
2023-04-12T14:20:00.514Z,21.48
2023-04-12T14:22:28.075Z,21.55
2023-04-12T14:24:55.146Z,21.91
2023-04-12T14:27:22.212Z,21.59
2023-04-12T14:29:49.558Z,22.33
2023-04-12T14:32:16.497Z,22.30
2023-04-12T14:34:43.545Z,21.87
2023-04-12T14:37:10.805Z,21.67
2023-04-12T14:39:37.828Z,21.72
2023-04-12T14:42:06.167Z,21.55
2023-04-12T14:44:32.984Z,21.20
2023-04-12T14:46:59.741Z,20.79
2023-04-12T14:49:26.554Z,20.79
2023-04-12T14:51:53.339Z,20.95
2023-04-12T14:54:20.882Z,20.74
2023-04-12T14:56:53.330Z,20.32
2023-04-12T14:59:21.756Z,20.77
2023-04-12T15:01:48.720Z,20.66
2023-04-12T15:04:15.797Z,20.52
2023-04-12T15:06:42.722Z,21.09
2023-04-12T15:09:10.103Z,20.92
2023-04-12T15:11:38.274Z,20.87
2023-04-12T15:14:07.143Z,20.88
2023-04-12T15:16:35.227Z,20.68
2023-04-12T15:19:06.714Z,21.13
2023-04-12T15:21:38.093Z,21.37
2023-04-12T15:24:05.060Z,21.82
2023-04-12T15:26:31.839Z,22.34
2023-04-12T15:28:58.641Z,22.15
2023-04-12T15:31:26.170Z,22.10
2023-04-12T15:33:53.295Z,38.14
2023-04-12T15:36:21.935Z,43.60
2023-04-12T15:38:48.695Z,46.88
2023-04-12T15:41:15.504Z,48.44
2023-04-12T15:43:45.141Z,52.90
2023-04-12T15:46:13.765Z,52.83
2023-04-12T15:48:41.649Z,54.46
2023-04-12T15:51:08.426Z,55.19
2023-04-12T15:53:35.491Z,57.21
2023-04-12T15:56:08.220Z,57.36
2023-04-12T15:58:35.045Z,58.06
2023-04-12T16:01:01.739Z,58.30
2023-04-12T16:03:28.899Z,59.12
2023-04-12T16:05:59.381Z,58.82
2023-04-12T16:08:27.459Z,59.70
2023-04-12T16:10:54.478Z,59.49
2023-04-12T16:13:21.494Z,59.88
2023-04-12T16:15:48.591Z,59.50
2023-04-12T16:18:17.262Z,59.11
2023-04-12T16:20:45.310Z,59.08
2023-04-12T16:23:13.011Z,59.24
2023-04-12T16:25:40.496Z,60.26
2023-04-12T16:28:08.207Z,60.55
2023-04-12T16:30:36.711Z,60.67
2023-04-12T16:33:06.046Z,59.71
2023-04-12T16:35:33.181Z,59.95
2023-04-12T16:38:00.698Z,60.29
2023-04-12T16:40:28.135Z,60.46
2023-04-12T16:42:55.192Z,60.06
2023-04-12T16:45:22.312Z,59.13
2023-04-12T16:47:50.851Z,59.19
2023-04-12T16:50:18.085Z,58.85
2023-04-12T16:52:44.914Z,57.73
2023-04-12T16:55:14.301Z,59.54
2023-04-12T16:57:43.008Z,60.25
2023-04-12T17:00:29.134Z,59.79
2023-04-12T17:03:03.762Z,60.19
2023-04-12T17:05:32.838Z,60.03
2023-04-12T17:07:59.727Z,59.57
2023-04-12T17:10:26.779Z,60.62
2023-04-12T17:12:55.878Z,61.46
2023-04-12T17:15:23.437Z,61.87
2023-04-12T17:17:52.237Z,61.87
2023-04-12T17:20:23.272Z,61.51
2023-04-12T17:22:52.130Z,60.27
2023-04-12T17:25:21.057Z,59.98
2023-04-12T17:27:49.347Z,60.18
2023-04-12T17:30:17.785Z,60.45
2023-04-12T17:32:48.168Z,60.98
2023-04-12T17:35:15.945Z,60.87
2023-04-12T17:37:42.982Z,60.91
2023-04-12T17:40:10.677Z,60.87
2023-04-12T17:42:39.359Z,61.30
2023-04-12T17:45:07.092Z,62.12
2023-04-12T17:47:34.819Z,62.31
2023-04-12T17:50:01.688Z,62.56
2023-04-12T17:52:28.554Z,62.46
2023-04-12T17:54:55.354Z,61.58
2023-04-12T17:57:22.607Z,60.45
2023-04-12T17:59:49.511Z,59.85
2023-04-12T18:02:17.207Z,60.24
2023-04-12T18:04:44.380Z,60.89
2023-04-12T18:07:11.865Z,60.19
2023-04-12T18:09:38.806Z,60.39
2023-04-12T18:12:06.002Z,60.35
2023-04-12T18:14:32.894Z,60.26
2023-04-12T18:16:59.768Z,60.28
2023-04-12T18:19:27.043Z,60.70
2023-04-12T18:21:53.910Z,60.79
2023-04-12T18:24:20.847Z,61.32
2023-04-12T18:26:48.451Z,61.74
2023-04-12T18:29:16.890Z,61.90
2023-04-12T18:31:46.248Z,62.09
2023-04-12T18:34:14.133Z,62.05
2023-04-12T18:36:42.425Z,61.71
2023-04-12T18:39:11.201Z,60.80
2023-04-12T18:41:38.378Z,61.04
2023-04-12T18:44:05.302Z,60.97
2023-04-12T18:46:32.184Z,61.42
2023-04-12T18:48:59.309Z,61.38
2023-04-12T18:51:26.767Z,61.56
2023-04-12T18:53:53.547Z,60.34
2023-04-12T18:56:24.475Z,60.18
2023-04-12T18:58:56.205Z,61.26
2023-04-12T19:01:24.117Z,61.33
2023-04-12T19:03:51.105Z,61.88
2023-04-12T19:06:18.737Z,61.78
2023-04-12T19:08:45.706Z,61.72
2023-04-12T19:11:12.559Z,61.04
2023-04-12T19:13:39.503Z,60.49
2023-04-12T19:16:09.340Z,59.55
2023-04-12T19:18:36.192Z,59.53
2023-04-12T19:21:03.547Z,59.91
2023-04-12T19:23:31.609Z,60.35
2023-04-12T19:26:00.455Z,60.92
2023-04-12T19:28:28.305Z,60.88
2023-04-12T19:30:57.730Z,61.85
2023-04-12T19:33:25.496Z,62.18
2023-04-12T19:35:55.250Z,63.08
2023-04-12T19:38:22.268Z,64.50
2023-04-12T19:40:51.360Z,64.55
2023-04-12T19:43:21.429Z,64.98
2023-04-12T19:45:48.500Z,64.56
2023-04-12T19:48:16.342Z,64.68
2023-04-12T19:50:43.080Z,66.04
2023-04-12T19:53:12.116Z,66.01
2023-04-12T19:55:39.045Z,65.91
2023-04-12T19:58:06.177Z,63.91
2023-04-12T20:00:32.988Z,62.25
2023-04-12T20:02:59.715Z,61.61
2023-04-12T20:05:26.838Z,61.54
2023-04-12T20:07:56.112Z,60.94
2023-04-12T20:10:23.117Z,60.84
2023-04-12T20:12:50.034Z,60.90
2023-04-12T20:15:17.890Z,60.88
2023-04-12T20:17:45.871Z,61.01
2023-04-12T20:20:14.374Z,61.55
2023-04-12T20:22:42.922Z,61.52
2023-04-12T20:25:11.083Z,61.80
2023-04-12T20:27:39.036Z,62.33
2023-04-12T20:30:08.993Z,62.28
2023-04-12T20:32:36.117Z,62.98
2023-04-12T20:35:06.652Z,62.78
2023-04-12T20:37:33.815Z,62.45
2023-04-12T20:40:00.938Z,62.27
2023-04-12T20:42:27.768Z,62.92
2023-04-12T20:44:54.517Z,63.34
2023-04-12T20:47:21.246Z,63.83
2023-04-12T20:49:48.147Z,63.82
2023-04-12T20:52:18.836Z,63.62
2023-04-12T20:54:45.847Z,63.70
2023-04-12T20:57:13.255Z,63.72
2023-04-12T20:59:40.055Z,63.89
2023-04-12T21:02:07.375Z,63.92
2023-04-12T21:04:36.340Z,64.03
2023-04-12T21:07:03.421Z,63.94
2023-04-12T21:09:30.395Z,64.03
2023-04-12T21:11:58.078Z,63.99
2023-04-12T21:14:24.968Z,64.00
2023-04-12T21:16:52.504Z,61.44
2023-04-12T21:19:19.401Z,60.00
2023-04-12T21:21:46.408Z,59.42
2023-04-12T21:24:13.371Z,58.58
2023-04-12T21:26:42.286Z,58.51
2023-04-12T21:29:09.240Z,57.64
2023-04-12T21:31:37.382Z,57.78
2023-04-12T21:34:04.245Z,58.95
2023-04-12T21:36:31.069Z,59.17
2023-04-12T21:38:59.573Z,60.07
2023-04-12T21:41:26.543Z,60.72
2023-04-12T21:43:53.322Z,60.48
2023-04-12T21:46:20.128Z,60.88
2023-04-12T21:48:46.944Z,61.38
2023-04-12T21:51:13.684Z,63.35
2023-04-12T21:53:40.450Z,63.05
2023-04-12T21:56:07.693Z,63.84
2023-04-12T21:58:34.457Z,64.11
2023-04-12T22:01:01.732Z,64.12
2023-04-12T22:03:28.634Z,64.24
2023-04-12T22:06:04.091Z,64.43
2023-04-12T22:08:33.141Z,65.29
2023-04-12T22:11:00.387Z,65.22
2023-04-12T22:13:27.655Z,65.58
2023-04-12T22:15:54.458Z,65.53
2023-04-12T22:18:22.054Z,65.25
2023-04-12T22:20:48.931Z,63.63
2023-04-12T22:23:18.145Z,62.50
2023-04-12T22:25:45.750Z,62.12
2023-04-12T22:28:12.524Z,62.07
2023-04-12T22:30:39.761Z,62.65
2023-04-12T22:33:08.442Z,62.20
2023-04-12T22:35:36.377Z,61.87
2023-04-12T22:38:04.134Z,61.92
2023-04-12T22:40:31.059Z,61.30
2023-04-12T22:42:58.211Z,61.19
2023-04-12T22:45:25.260Z,61.08
2023-04-12T22:47:52.952Z,61.15
2023-04-12T22:50:20.169Z,61.53
2023-04-12T22:52:49.965Z,60.72
2023-04-12T22:55:18.155Z,60.53
2023-04-12T22:57:45.029Z,60.55
2023-04-12T23:00:14.979Z,60.31
2023-04-12T23:02:43.940Z,60.31
2023-04-12T23:05:12.090Z,60.59
2023-04-12T23:07:41.263Z,60.46
2023-04-12T23:10:08.915Z,60.54
2023-04-12T23:12:37.431Z,60.89
2023-04-12T23:15:06.488Z,60.53
2023-04-12T23:17:33.940Z,60.25
2023-04-12T23:20:01.956Z,60.33
2023-04-12T23:22:55.844Z,59.95
2023-04-12T23:25:41.932Z,59.96
2023-04-12T23:28:13.526Z,60.13
2023-04-12T23:30:49.046Z,60.41
2023-04-12T23:33:20.663Z,60.69
2023-04-12T23:35:52.863Z,60.48
2023-04-12T23:38:26.026Z,60.31
2023-04-12T23:40:53.807Z,60.39
2023-04-12T23:43:22.412Z,60.51
2023-04-12T23:45:49.598Z,60.60
2023-04-12T23:48:16.657Z,60.53
2023-04-12T23:50:45.767Z,61.04
2023-04-12T23:53:13.141Z,61.40
2023-04-12T23:55:41.961Z,61.60
2023-04-12T23:58:09.478Z,60.94
